Sandspit Airport
CYZP : now visible

Airfield :











YOU CAN JOIN US ON...

 
LOGIN :

Register | Disclaimer

   EN    FR    IT 

 









Legend :    VFR   Marginal VFR   IFR   Intensive IFR   Very Intensive IFR
Visi :
Ceiling :
>= 8 km
>= 3000ft
5 to 8 km
1000 to 3000 ft
1500m to 5 km
500 to 1000 ft
800 to 1500m
200 to 500 ft
< 800m
< 200 ft
Symbols :   Thunderstorms  Fog  Heavy snow  Heavy precipitations  Wind > 20 kt






- Airport Elevation : 21 ft
- IATA code : YZP


CYZP - Sandspit

CURRENT METAR :
  • 281400Z AUTO 21004KT 9SM SCT050 07/05 A2974 RMK SLP072

EXPIRED METARs :
  • 281300Z AUTO 21004KT 9SM CLR 07/04 A2973 RMK SLP070
  • 281200Z AUTO 23003KT 170V260 9SM CLR 08/04 A2972 RMK SLP067

TAF TAF CYZP
Valid from the 28 at 13:00 until the 29 at 01:00 UTC


281239Z 2813/2901 24008KT P6SM SCT040 SCT180
BECMG 2815/2817 15014KT
FM282100 15020G30KT P6SM -RA SCT020 BKN040 OVC080
FM282300 15025G35KT 4SM -RA BR OVC020 RMK FCST BASED ON AUTO OBS. NXT FCST BY 281900Z
CZVR FIR / North America



MET'MAP, your aeronautical weather chart ! - Copyright ORBIFLY December 2007 - Disclaimer

ORBIFLY MET'MAP TEAM :

Programming & Development : Alexandra Zaïnal
Concept & original design : Baudouin d'Aumeries
Assistance for programming : Marc-Olivier Méhu
Technical & hardware support : Manuel Goepfert

Contact : metmap@orbifly.com




SOURCES & CREDITS :

   NOAA       Earth
Advisory